SGD weather

S√łnderborg Airport
S√łnderborg, South Denmark, Denmark

Public forecast

Using degrees Celsius for public forecast. Weather courtesy of forecast.io.

METAR (pilot weather report)

Retrieved 2019/09/23 08:20 UTC (22 minutes ago):

EKSB 230820Z 10015KT 9999 BKN012 16/13 Q1014

TAF (pilot weather forecast)

Forecast is more than 12 hours old.

Retrieved 2016/01/27 09:03 UTC (4 years ago):

TAF TAF EKSB 270856Z 2709/2721 23022KT 5000 -RA BR BKN008 TEMPO 2709/2721 24025G40KT 2000 RADZ BKN004